Terminal Aerodrome Forecast
Issued by NWS

Home | Current Version | Previous Version | Graphics & Text | Print | Product List | Glossary On
Versions: 1 2 3 4 5 6 7 8 9 10 11 12 13 14 15 16 17 18 19 20
000
FTUS43 KGRB 271700
TAFATW
TAF
KATW 271722Z 2718/2818 06008KT P6SM SCT025 BKN035
     FM272100 05005KT P6SM SCT035
     FM280300 VRB03KT P6SM BKN150
     FM281200 19006KT P6SM OVC120=

USA.gov is the U.S. government's official web portal to all federal, state and local government web resources and services.